Time;durP1;ratioP1;P1;durP2;ratioP2;P2;SDS_P1;SDS_P2;PMS_P1;PMS_P2;Temp;Humidity;BMP_temperature;BMP_pressure;BME280_temperature;BME280_humidity;BME280_pressure;Samples;Min_cycle;Max_cycle;Signal;HPM_P1;HPM_P2
2023/03/26 00:01:26;;;;;;;13.80;2.37;;;9.00;99.90;;;;;;4994763;28;20058;-81
2023/03/26 00:03:57;;;;;;;18.23;2.30;;;9.00;99.90;;;;;;4977555;28;20121;-81
2023/03/26 00:06:25;;;;;;;11.60;1.97;;;9.00;99.90;;;;;;4994873;28;20025;-80
2023/03/26 00:08:52;;;;;;;16.17;2.53;;;9.10;99.90;;;;;;4993588;28;20026;-80
2023/03/26 00:11:20;;;;;;;13.97;1.90;;;9.10;99.90;;;;;;4994670;28;20022;-80
2023/03/26 00:13:46;;;;;;;15.33;2.50;;;9.10;99.90;;;;;;4993805;28;20049;-80
2023/03/26 00:16:18;;;;;;;15.57;2.63;;;9.10;99.90;;;;;;4993756;28;20110;-80
2023/03/26 00:18:44;;;;;;;15.63;2.97;;;9.10;99.90;;;;;;4994693;28;20030;-80
2023/03/26 00:21:13;;;;;;;24.50;3.73;;;9.20;99.90;;;;;;4976956;28;20022;-80
2023/03/26 00:23:38;;;;;;;19.83;3.57;;;9.20;99.90;;;;;;4994771;28;20029;-80
2023/03/26 00:26:09;;;;;;;20.37;3.80;;;9.20;99.90;;;;;;4961143;28;20030;-80
2023/03/26 00:28:39;;;;;;;18.90;3.10;;;9.20;99.90;;;;;;4994548;28;20073;-81
2023/03/26 00:31:06;;;;;;;21.03;3.77;;;9.30;99.90;;;;;;4993931;28;20109;-80
2023/03/26 00:33:32;;;;;;;32.70;4.03;;;9.30;99.90;;;;;;4993176;28;20042;-80
2023/03/26 00:35:59;;;;;;;21.57;3.87;;;9.30;99.90;;;;;;4977165;28;20470;-80
2023/03/26 00:38:27;;;;;;;24.70;4.43;;;9.30;99.90;;;;;;4977095;28;20163;-80
2023/03/26 00:40:55;;;;;;;23.60;3.53;;;9.30;99.90;;;;;;4994387;28;20028;-80
2023/03/26 00:43:22;;;;;;;21.47;4.47;;;9.30;99.90;;;;;;4992798;28;20022;-80
2023/03/26 00:45:53;;;;;;;23.57;4.27;;;9.20;99.90;;;;;;4994268;28;20093;-80
2023/03/26 00:48:20;;;;;;;23.17;5.30;;;9.20;99.90;;;;;;4994378;28;20363;-79
2023/03/26 00:50:47;;;;;;;26.90;5.00;;;9.20;99.90;;;;;;4994342;28;20080;-80
2023/03/26 00:53:14;;;;;;;27.73;4.93;;;9.20;99.90;;;;;;4994293;28;20066;-81
2023/03/26 00:55:41;;;;;;;31.20;4.47;;;9.20;99.90;;;;;;4992475;28;20112;-82
2023/03/26 00:58:10;;;;;;;31.67;5.23;;;9.20;99.90;;;;;;4993553;28;20026;-81
2023/03/26 01:00:51;;;;;;;19.73;3.30;;;9.20;99.90;;;;;;4977087;28;20459;-81
2023/03/26 01:03:18;;;;;;;24.80;5.33;;;9.20;99.90;;;;;;4994178;28;20049;-80
2023/03/26 01:05:53;;;;;;;27.70;5.30;;;9.20;99.90;;;;;;4992623;28;20026;-80
2023/03/26 01:08:30;;;;;;;29.23;4.97;;;9.20;99.90;;;;;;4992906;28;20049;-80
2023/03/26 01:11:01;;;;;;;31.00;6.03;;;9.20;99.90;;;;;;4976267;28;20054;-80
2023/03/26 01:13:34;;;;;;;31.23;4.80;;;9.10;99.90;;;;;;4992459;28;20038;-81
2023/03/26 01:16:00;;;;;;;21.00;4.53;;;9.10;99.90;;;;;;4976581;28;20390;-81
2023/03/26 01:18:32;;;;;;;32.73;7.10;;;9.20;99.90;;;;;;4976193;28;20030;-81
2023/03/26 01:21:04;;;;;;;30.63;5.90;;;9.10;99.90;;;;;;4992253;28;20023;-81
2023/03/26 01:23:59;;;;;;;28.97;5.30;;;9.20;99.90;;;;;;4992184;28;20129;-81
2023/03/26 01:26:40;;;;;;;25.50;5.90;;;9.20;99.90;;;;;;4971772;28;20158;-81
2023/03/26 01:29:17;;;;;;;28.87;6.10;;;9.20;99.90;;;;;;4993908;28;20100;-81
2023/03/26 01:31:58;;;;;;;22.03;4.47;;;9.20;99.90;;;;;;4991874;28;20042;-80
2023/03/26 01:34:38;;;;;;;24.70;5.93;;;9.20;99.90;;;;;;4976189;28;20546;-81
2023/03/26 01:37:22;;;;;;;31.50;5.00;;;9.20;99.90;;;;;;4992485;28;20030;-81
2023/03/26 01:39:56;;;;;;;;;;;9.20;99.90;;;;;;4976369;28;20489;-81
2023/03/26 01:42:36;;;;;;;23.23;3.83;;;9.20;99.90;;;;;;4993510;28;20314;-81
2023/03/26 01:45:12;;;;;;;34.77;5.10;;;9.20;99.90;;;;;;4993554;28;20497;-80
2023/03/26 01:47:39;;;;;;;30.40;4.73;;;9.20;99.90;;;;;;4992252;28;20033;-80
2023/03/26 01:50:06;;;;;;;30.20;7.00;;;9.20;99.90;;;;;;4976133;28;20169;-80
2023/03/26 01:52:31;;;;;;;32.53;5.73;;;9.20;99.90;;;;;;4975765;28;20031;-80
2023/03/26 01:54:58;;;;;;;32.37;5.77;;;9.20;99.90;;;;;;4991914;28;20057;-81
2023/03/26 01:57:50;;;;;;;22.67;5.53;;;9.20;99.90;;;;;;4993379;28;20034;-80
2023/03/26 02:00:30;;;;;;;22.73;5.50;;;9.20;99.90;;;;;;4993904;28;20023;-80
2023/03/26 02:02:58;;;;;;;29.33;6.00;;;9.20;99.90;;;;;;4992861;28;20034;-80
2023/03/26 02:05:53;;;;;;;33.40;6.80;;;9.20;99.90;;;;;;4975857;28;20026;-80
2023/03/26 02:08:34;;;;;;;28.90;5.35;;;9.20;99.90;;;;;;4991977;28;20034;-80
2023/03/26 02:11:09;;;;;;;27.13;6.23;;;9.30;99.90;;;;;;4997422;28;20125;-80
2023/03/26 02:13:37;;;;;;;30.33;5.63;;;9.30;99.90;;;;;;4979341;28;20070;-80
2023/03/26 02:16:05;;;;;;;22.60;5.20;;;9.30;99.90;;;;;;4995794;28;20097;-80
2023/03/26 02:18:40;;;;;;;22.07;5.30;;;9.30;99.90;;;;;;4997166;28;20042;-81
2023/03/26 02:21:20;;;;;;;32.20;6.17;;;9.30;99.90;;;;;;4980952;28;20030;-80
2023/03/26 02:23:56;;;;;;;29.63;6.43;;;9.30;99.90;;;;;;4979640;28;20035;-81
2023/03/26 02:26:22;;;;;;;32.63;6.27;;;9.30;99.90;;;;;;4997267;28;20418;-81
2023/03/26 02:28:48;;;;;;;28.23;6.10;;;9.30;99.90;;;;;;4995392;28;20026;-81
2023/03/26 02:31:15;;;;;;;26.03;5.57;;;9.40;99.90;;;;;;4979126;28;20375;-81
2023/03/26 02:33:43;;;;;;;25.97;5.30;;;9.40;99.90;;;;;;4979000;28;20034;-81
2023/03/26 02:36:12;;;;;;;28.17;5.63;;;9.40;99.90;;;;;;4996550;28;20026;-81
2023/03/26 02:38:38;;;;;;;35.10;6.00;;;9.40;99.90;;;;;;4979043;28;20479;-81
2023/03/26 02:41:04;;;;;;;33.33;6.53;;;9.40;99.90;;;;;;4963345;28;20030;-80
2023/03/26 02:43:30;;;;;;;33.63;5.87;;;9.40;99.90;;;;;;4979147;28;20554;-81
2023/03/26 02:45:56;;;;;;;34.97;6.73;;;9.40;99.90;;;;;;4978954;28;20109;-81
2023/03/26 02:48:22;;;;;;;39.40;7.93;;;9.50;99.90;;;;;;4995502;28;20058;-81
2023/03/26 02:50:53;;;;;;;34.37;5.80;;;9.40;99.90;;;;;;4996337;28;20045;-82
2023/03/26 02:53:20;;;;;;;41.13;7.00;;;9.50;99.90;;;;;;4994733;28;20034;-81
2023/03/26 02:55:47;;;;;;;48.27;8.60;;;9.40;99.90;;;;;;4979101;28;20054;-81
2023/03/26 02:58:16;;;;;;;34.93;8.03;;;9.40;99.90;;;;;;4995197;28;20027;-81
2023/03/26 03:00:45;;;;;;;32.67;7.33;;;9.40;99.90;;;;;;4963116;28;20074;-82
2023/03/26 03:03:12;;;;;;;31.83;8.07;;;9.40;99.90;;;;;;4978894;28;20030;-82
2023/03/26 03:05:41;;;;;;;33.50;7.73;;;9.40;99.90;;;;;;4978911;28;20027;-81
2023/03/26 03:08:08;;;;;;;31.83;7.60;;;9.40;99.90;;;;;;4994939;28;20025;-81
2023/03/26 03:10:36;;;;;;;38.70;8.27;;;9.40;99.90;;;;;;4996290;28;20030;-82
2023/03/26 03:13:04;;;;;;;30.20;7.57;;;9.40;99.90;;;;;;4962533;28;20034;-81
2023/03/26 03:15:30;;;;;;;36.70;9.00;;;9.40;99.90;;;;;;4996261;28;20054;-81
2023/03/26 03:17:55;;;;;;;33.27;8.57;;;9.40;99.90;;;;;;4978393;28;20073;-81
2023/03/26 03:20:21;;;;;;;33.17;8.20;;;9.40;99.90;;;;;;4962181;28;20062;-82
2023/03/26 03:22:47;;;;;;;33.70;8.50;;;9.40;99.90;;;;;;4994582;28;20042;-81
2023/03/26 03:25:16;;;;;;;37.63;9.00;;;9.40;99.90;;;;;;4962481;28;20077;-82
2023/03/26 03:27:42;;;;;;;35.33;8.10;;;9.40;99.90;;;;;;4978954;28;20061;-81
2023/03/26 03:30:11;;;;;;;32.87;7.20;;;9.40;99.90;;;;;;4994638;28;20479;-81
2023/03/26 03:32:36;;;;;;;35.00;8.63;;;9.40;99.90;;;;;;4995128;28;20026;-81
2023/03/26 03:35:02;;;;;;;32.83;8.30;;;9.40;99.90;;;;;;4977812;28;20493;-81
2023/03/26 03:37:28;;;;;;;32.13;8.67;;;9.50;99.90;;;;;;4978016;28;20034;-80
2023/03/26 03:39:54;;;;;;;32.17;7.03;;;9.40;99.90;;;;;;4962548;28;20498;-80
2023/03/26 03:42:19;;;;;;;33.87;7.50;;;9.50;99.90;;;;;;4978011;28;20475;-80
2023/03/26 03:44:45;;;;;;;26.10;7.27;;;9.50;99.90;;;;;;4978072;28;20034;-80
2023/03/26 03:47:12;;;;;;;32.83;6.87;;;9.50;99.90;;;;;;4995394;28;20018;-80
2023/03/26 03:49:39;;;;;;;31.20;7.13;;;9.50;99.90;;;;;;4977781;28;20037;-80
2023/03/26 03:52:05;;;;;;;30.23;7.93;;;9.50;99.90;;;;;;4978052;28;20463;-80
2023/03/26 03:54:31;;;;;;;32.67;7.40;;;9.50;99.90;;;;;;4993807;28;20042;-80
2023/03/26 03:56:57;;;;;;;32.27;7.13;;;9.50;99.90;;;;;;4977486;28;20030;-80
2023/03/26 03:59:23;;;;;;;20.77;5.60;;;9.50;99.90;;;;;;4961756;28;20026;-80
2023/03/26 04:01:49;;;;;;;31.50;6.10;;;9.50;99.90;;;;;;4961033;28;20082;-80
2023/03/26 04:04:16;;;;;;;28.90;5.23;;;9.50;99.90;;;;;;4994877;28;20382;-80
2023/03/26 04:06:42;;;;;;;26.30;4.83;;;9.50;99.90;;;;;;4993711;28;20023;-80
2023/03/26 04:09:09;;;;;;;22.07;4.70;;;9.50;99.90;;;;;;4994998;28;20102;-81
2023/03/26 04:11:35;;;;;;;29.97;6.03;;;9.50;99.90;;;;;;4994691;28;20027;-80
2023/03/26 04:14:01;;;;;;;21.57;4.47;;;9.50;99.90;;;;;;4994454;28;20483;-80
2023/03/26 04:16:26;;;;;;;25.33;4.93;;;9.50;99.90;;;;;;4961123;28;20026;-80
2023/03/26 04:18:52;;;;;;;29.17;4.73;;;9.50;99.90;;;;;;4994828;28;20038;-80
2023/03/26 04:21:18;;;;;;;19.63;4.53;;;9.50;99.90;;;;;;4977188;28;20042;-80
2023/03/26 04:23:44;;;;;;;30.67;5.40;;;9.50;99.90;;;;;;4977249;28;20023;-81
2023/03/26 04:26:15;;;;;;;35.27;4.50;;;9.50;99.90;;;;;;4977224;28;20030;-80
2023/03/26 04:28:49;;;;;;;22.47;4.67;;;9.50;99.90;;;;;;4993519;28;20030;-81
2023/03/26 04:31:17;;;;;;;22.15;3.88;;;9.50;99.90;;;;;;4994172;28;20035;-80
2023/03/26 04:33:46;;;;;;;26.10;4.17;;;9.50;99.90;;;;;;4993577;28;20042;-81
2023/03/26 04:36:14;;;;;;;25.57;4.33;;;9.50;99.90;;;;;;4976703;28;20026;-81
2023/03/26 04:38:43;;;;;;;26.23;5.37;;;9.50;99.90;;;;;;4994517;28;20479;-80
2023/03/26 04:41:11;;;;;;;25.37;4.20;;;9.50;99.90;;;;;;4976905;28;20121;-81
2023/03/26 04:43:41;;;;;;;25.17;4.47;;;9.50;99.90;;;;;;4993095;28;20030;-81
2023/03/26 04:46:32;;;;;;;22.07;4.80;;;9.50;99.90;;;;;;4982652;28;20415;-81
2023/03/26 04:48:58;;;;;;;29.23;4.33;;;9.50;99.90;;;;;;4955702;28;20023;-81
2023/03/26 04:51:33;;;;;;;25.00;4.53;;;9.50;99.90;;;;;;4972982;28;20678;-81
2023/03/26 04:54:00;;;;;;;28.63;5.20;;;9.50;99.90;;;;;;4973432;28;20498;-81
2023/03/26 04:56:47;;;;;;;17.17;3.33;;;9.50;99.90;;;;;;4974417;28;20054;-81
2023/03/26 04:59:18;;;;;;;21.67;3.50;;;9.50;99.90;;;;;;4974482;28;20114;-80
2023/03/26 05:01:44;;;;;;;22.83;4.13;;;9.50;99.90;;;;;;4956687;28;20538;-81
2023/03/26 05:04:12;;;;;;;33.03;4.87;;;9.50;99.90;;;;;;4957226;28;20035;-81
2023/03/26 05:06:41;;;;;;;20.80;3.40;;;9.50;99.90;;;;;;4956937;28;20027;-80
2023/03/26 05:09:09;;;;;;;20.03;3.33;;;9.50;99.90;;;;;;4957347;28;20039;-81
2023/03/26 05:11:35;;;;;;;23.90;4.43;;;9.60;99.90;;;;;;4941234;28;20027;-81
2023/03/26 05:14:01;;;;;;;24.53;3.90;;;9.60;99.90;;;;;;4974338;28;20038;-81
2023/03/26 05:16:27;;;;;;;19.93;3.57;;;9.60;99.90;;;;;;4974486;28;20027;-81
2023/03/26 05:18:53;;;;;;;18.67;3.23;;;9.60;99.90;;;;;;4973177;28;20031;-81
2023/03/26 05:21:19;;;;;;;19.40;4.07;;;9.60;99.90;;;;;;4974604;28;20038;-81
2023/03/26 05:23:45;;;;;;;28.03;4.37;;;9.60;99.90;;;;;;4974093;28;20472;-81
2023/03/26 05:26:11;;;;;;;22.07;3.60;;;9.60;99.90;;;;;;4973242;28;20034;-80
2023/03/26 05:28:36;;;;;;;28.30;4.10;;;9.60;99.90;;;;;;4957086;28;20058;-80
2023/03/26 05:31:03;;;;;;;20.73;4.13;;;9.60;99.90;;;;;;4956664;28;20046;-81
2023/03/26 05:33:29;;;;;;;19.27;3.77;;;9.60;99.90;;;;;;4973957;28;20035;-81
2023/03/26 05:36:00;;;;;;;24.17;3.57;;;9.70;99.90;;;;;;4956652;28;20078;-80
2023/03/26 05:38:28;;;;;;;21.63;4.77;;;9.70;99.90;;;;;;4957164;28;20476;-80
2023/03/26 05:40:59;;;;;;;25.23;4.67;;;9.70;99.90;;;;;;4973079;28;20395;-80
2023/03/26 05:43:26;;;;;;;26.10;4.03;;;9.70;99.90;;;;;;4956829;28;20082;-81
2023/03/26 05:45:51;;;;;;;25.20;3.93;;;9.70;99.90;;;;;;4978167;28;20398;-81
2023/03/26 05:48:17;;;;;;;18.70;3.10;;;9.70;99.90;;;;;;4960539;28;20031;-81
2023/03/26 05:50:43;;;;;;;22.93;4.13;;;9.70;99.90;;;;;;4960854;28;20035;-82
2023/03/26 05:53:08;;;;;;;20.13;4.20;;;9.70;99.90;;;;;;4976974;28;20114;-81
2023/03/26 05:55:36;;;;;;;26.53;4.07;;;9.70;99.90;;;;;;4944096;28;20114;-82
2023/03/26 05:58:02;;;;;;;23.37;3.93;;;9.70;99.90;;;;;;4976888;28;20039;-82
2023/03/26 06:00:27;;;;;;;23.97;4.70;;;9.60;99.90;;;;;;4960674;28;20033;-81
2023/03/26 06:02:56;;;;;;;22.00;3.90;;;9.70;99.90;;;;;;4977201;28;20026;-81
2023/03/26 06:05:21;;;;;;;23.57;4.47;;;9.60;99.90;;;;;;4976684;28;20034;-80
2023/03/26 06:07:47;;;;;;;21.33;3.83;;;9.70;99.90;;;;;;4944317;28;20403;-81
2023/03/26 06:10:13;;;;;;;23.07;4.80;;;9.60;99.90;;;;;;4976580;28;20498;-81
2023/03/26 06:12:38;;;;;;;25.43;4.13;;;9.60;99.90;;;;;;4977430;28;20032;-81
2023/03/26 06:15:04;;;;;;;24.97;5.30;;;9.60;99.90;;;;;;4960242;28;20541;-80
2023/03/26 06:17:30;;;;;;;26.10;3.77;;;9.70;99.90;;;;;;4944054;28;20042;-80
2023/03/26 06:19:56;;;;;;;20.97;4.20;;;9.70;99.90;;;;;;4944365;28;20391;-80
2023/03/26 06:22:21;;;;;;;22.90;4.67;;;9.70;99.90;;;;;;4960443;28;20170;-80
2023/03/26 06:24:47;;;;;;;16.70;3.70;;;9.70;99.90;;;;;;4976483;28;20502;-80
2023/03/26 06:27:13;;;;;;;22.03;4.47;;;9.70;99.90;;;;;;4960243;28;20030;-80
2023/03/26 06:29:38;;;;;;;24.07;4.63;;;9.80;99.90;;;;;;4943875;28;20114;-81
2023/03/26 06:32:04;;;;;;;22.10;4.77;;;9.80;99.90;;;;;;4959409;28;20471;-81
2023/03/26 06:34:30;;;;;;;26.67;4.70;;;9.80;99.90;;;;;;4959716;28;20062;-81
2023/03/26 06:36:55;;;;;;;25.27;4.80;;;9.80;99.90;;;;;;4976172;28;20030;-80
2023/03/26 06:39:21;;;;;;;20.90;4.50;;;9.80;99.90;;;;;;4976126;28;20041;-80
2023/03/26 06:41:47;;;;;;;22.73;3.63;;;9.80;99.90;;;;;;4977198;28;20077;-80
2023/03/26 06:44:12;;;;;;;20.87;4.00;;;9.80;99.90;;;;;;4960171;28;20031;-81
2023/03/26 06:46:38;;;;;;;23.17;4.07;;;9.90;99.90;;;;;;4972731;28;20529;-80
2023/03/26 06:49:04;;;;;;;22.30;3.60;;;9.80;99.90;;;;;;4979220;28;20038;-81
2023/03/26 06:51:29;;;;;;;19.60;3.43;;;9.90;99.90;;;;;;4979008;28;20030;-81
2023/03/26 06:53:55;;;;;;;19.83;3.17;;;9.90;99.90;;;;;;4996305;28;20046;-81
2023/03/26 06:56:21;;;;;;;22.60;4.27;;;9.90;99.90;;;;;;4977755;28;20054;-81
2023/03/26 06:58:46;;;;;;;27.60;4.23;;;9.90;99.90;;;;;;4978905;28;20026;-81
2023/03/26 07:01:12;;;;;;;23.97;5.10;;;9.90;99.90;;;;;;4995720;28;20501;-81
2023/03/26 07:03:38;;;;;;;24.00;4.57;;;9.90;99.90;;;;;;4962888;28;20031;-81
2023/03/26 07:06:04;;;;;;;23.87;4.40;;;9.90;99.90;;;;;;4962730;28;20113;-80
2023/03/26 07:08:30;;;;;;;25.37;4.57;;;10.00;99.90;;;;;;4978496;28;20034;-81
2023/03/26 07:10:56;;;;;;;24.77;4.80;;;10.00;99.90;;;;;;4962925;28;20371;-81
2023/03/26 07:13:21;;;;;;;18.53;4.07;;;9.90;99.90;;;;;;4994515;28;20049;-80
2023/03/26 07:15:48;;;;;;;23.00;4.53;;;10.00;99.90;;;;;;4995914;28;20034;-80
2023/03/26 07:18:13;;;;;;;22.37;4.13;;;10.00;99.90;;;;;;4978570;28;20030;-80
2023/03/26 07:20:41;;;;;;;25.13;4.83;;;10.00;99.90;;;;;;4996019;28;20498;-81
2023/03/26 07:23:07;;;;;;;29.97;4.97;;;10.00;99.90;;;;;;4978442;28;20039;-80
2023/03/26 07:25:33;;;;;;;20.40;4.60;;;10.00;99.90;;;;;;4960079;28;20030;-80
2023/03/26 07:28:16;;;;;;;22.20;5.47;;;10.10;99.90;;;;;;4994218;28;20506;-81
2023/03/26 07:31:06;;;;;;;17.40;5.00;;;10.10;99.90;;;;;;4993446;28;20352;-80
2023/03/26 07:33:53;;;;;;;22.73;4.30;;;10.10;99.90;;;;;;4993875;28;20124;-81
2023/03/26 07:36:22;;;;;;;28.17;5.00;;;10.10;99.90;;;;;;4991498;28;20068;-79
2023/03/26 07:39:05;;;;;;;20.13;3.83;;;10.10;99.90;;;;;;4973400;28;20417;-81
2023/03/26 07:42:12;;;;;;;26.80;4.77;;;10.10;99.90;;;;;;4992079;28;20113;-81
2023/03/26 07:44:55;;;;;;;28.87;5.30;;;10.20;99.90;;;;;;4984603;28;20026;-79
2023/03/26 07:47:31;;;;;;;22.53;3.80;;;10.20;99.90;;;;;;4994977;28;20048;-80
2023/03/26 07:49:57;;;;;;;21.07;4.03;;;10.20;99.90;;;;;;4989539;28;20069;-79
2023/03/26 07:52:24;;;;;;;23.73;5.27;;;10.30;99.90;;;;;;4991660;28;20374;-80
2023/03/26 07:54:50;;;;;;;23.53;3.73;;;10.20;99.90;;;;;;4994153;28;20038;-80
2023/03/26 07:58:06;;;;;;;16.80;3.67;;;10.30;99.90;;;;;;4994532;28;20391;-81
2023/03/26 08:00:49;;;;;;;20.43;3.77;;;10.30;99.90;;;;;;4925996;29;20039;-80
2023/03/26 08:03:54;;;;;;;19.80;3.95;;;10.40;99.90;;;;;;4987048;28;20487;-81
2023/03/26 08:06:32;;;;;;;23.05;4.25;;;10.40;99.90;;;;;;4991127;28;20064;-80
2023/03/26 08:09:19;;;;;;;22.87;4.20;;;10.40;99.90;;;;;;4977582;28;20374;-79
2023/03/26 08:12:15;;;;;;;16.87;3.97;;;10.40;99.90;;;;;;4994809;28;20026;-81
2023/03/26 08:14:46;;;;;;;21.73;4.53;;;10.40;99.90;;;;;;4987571;28;20046;-80
2023/03/26 08:17:41;;;;;;;25.90;3.90;;;10.50;99.90;;;;;;4977551;28;20026;-81
2023/03/26 08:20:16;;;;;;;20.33;3.30;;;10.50;99.90;;;;;;4985834;28;20042;-80
2023/03/26 08:22:44;;;;;;;17.63;3.67;;;10.50;99.90;;;;;;4957692;28;20073;-81
2023/03/26 08:25:27;;;;;;;21.20;4.73;;;10.50;99.90;;;;;;4956337;28;20030;-80
2023/03/26 08:28:07;;;;;;;31.03;4.63;;;10.50;99.90;;;;;;4965611;28;20023;-81
2023/03/26 08:30:33;;;;;;;20.07;4.53;;;10.40;99.90;;;;;;4972964;28;20121;-80
2023/03/26 08:33:20;;;;;;;32.13;4.93;;;10.40;99.90;;;;;;4972992;28;20086;-80
2023/03/26 08:35:47;;;;;;;25.37;5.13;;;10.40;99.90;;;;;;4956668;28;20035;-80
2023/03/26 08:38:15;;;;;;;22.63;5.13;;;10.40;99.90;;;;;;4957457;28;20031;-80
2023/03/26 08:41:10;;;;;;;25.23;5.50;;;10.40;99.90;;;;;;4975327;28;20094;-80
2023/03/26 08:44:01;;;;;;;24.20;5.40;;;10.30;99.90;;;;;;4973869;28;20498;-80
2023/03/26 08:46:51;;;;;;;21.83;5.97;;;10.30;99.90;;;;;;4973549;28;20039;-80
2023/03/26 08:49:27;;;;;;;23.57;5.10;;;10.30;99.90;;;;;;4974882;28;20058;-80
2023/03/26 08:51:59;;;;;;;17.10;4.93;;;10.30;99.90;;;;;;4974839;28;20027;-81
2023/03/26 08:54:31;;;;;;;16.77;4.30;;;10.30;99.90;;;;;;4973474;28;20069;-81
2023/03/26 08:57:30;;;;;;;17.23;3.90;;;10.30;99.90;;;;;;4974826;28;20054;-81
2023/03/26 09:00:09;;;;;;;18.40;3.87;;;10.30;99.90;;;;;;4973782;28;20513;-82
2023/03/26 09:02:47;;;;;;;24.03;5.40;;;10.30;99.90;;;;;;4957172;28;20031;-81
2023/03/26 09:05:50;;;;;;;21.07;4.87;;;10.30;99.90;;;;;;4974819;28;20031;-81
2023/03/26 09:08:43;;;;;;;15.80;4.15;;;10.30;99.90;;;;;;4974369;28;20037;-81
2023/03/26 09:11:26;;;;;;;14.13;3.80;;;10.40;99.90;;;;;;4974693;28;20026;-81
2023/03/26 09:14:22;;;;;;;15.10;4.23;;;10.40;99.90;;;;;;4974527;28;20513;-81
2023/03/26 09:17:19;;;;;;;16.90;4.60;;;10.40;99.90;;;;;;4956872;28;20491;-81
2023/03/26 09:19:57;;;;;;;13.52;3.83;;;10.50;99.90;;;;;;4973749;28;20035;-81
2023/03/26 09:22:46;;;;;;;12.13;2.83;;;10.50;99.90;;;;;;4956871;28;20050;-81
2023/03/26 09:25:42;;;;;;;11.25;3.38;;;10.60;99.90;;;;;;4961003;28;20042;-81
2023/03/26 09:28:29;;;;;;;14.23;3.50;;;10.70;99.90;;;;;;4947454;29;20028;-81
2023/03/26 09:31:10;;;;;;;17.65;3.80;;;10.70;99.90;;;;;;4966659;28;20029;-81
2023/03/26 09:34:00;;;;;;;17.83;4.53;;;10.70;99.90;;;;;;4956935;28;20043;-81
2023/03/26 09:36:41;;;;;;;14.73;3.40;;;10.70;99.90;;;;;;4972729;28;20076;-80
2023/03/26 09:39:27;;;;;;;14.23;3.38;;;10.70;99.90;;;;;;4956414;28;20026;-81
2023/03/26 09:42:13;;;;;;;18.33;3.83;;;10.70;99.90;;;;;;4974149;28;20435;-81
2023/03/26 09:45:03;;;;;;;13.33;3.33;;;10.70;99.90;;;;;;4973123;28;20057;-81
2023/03/26 09:47:50;;;;;;;13.15;3.17;;;10.80;99.90;;;;;;4956720;28;20027;-81
2023/03/26 09:50:22;;;;;;;15.82;3.35;;;10.80;99.90;;;;;;4973029;28;20031;-81
2023/03/26 09:53:17;;;;;;;13.50;3.00;;;10.80;99.90;;;;;;4972687;28;20035;-81
2023/03/26 09:56:14;;;;;;;12.77;3.50;;;10.80;99.90;;;;;;4973770;28;20050;-81
2023/03/26 09:58:49;;;;;;;12.27;3.28;;;11.00;99.90;;;;;;4973049;28;20502;-81
2023/03/26 10:02:08;;;;;;;12.48;4.10;;;11.00;99.90;;;;;;4972462;28;20031;-81
2023/03/26 10:05:07;;;;;;;12.05;4.82;;;11.00;99.90;;;;;;4914323;29;20108;-81
2023/03/26 10:07:48;;;;;;;12.90;4.25;;;11.00;99.90;;;;;;4891399;28;20043;-81
2023/03/26 10:10:47;;;;;;;13.98;4.72;;;11.00;99.90;;;;;;4972726;28;20538;-81
2023/03/26 10:13:38;;;;;;;11.05;4.20;;;11.00;99.90;;;;;;4956546;28;20129;-81
2023/03/26 10:16:27;;;;;;;8.63;3.75;;;11.00;99.90;;;;;;4956345;28;20435;-81
2023/03/26 10:18:52;;;;;;;11.60;3.78;;;11.00;99.90;;;;;;4973546;28;20027;-81
2023/03/26 10:21:25;;;;;;;12.05;3.97;;;11.00;99.90;;;;;;4973946;28;20034;-81
2023/03/26 10:24:03;;;;;;;15.27;3.97;;;11.10;99.90;;;;;;4972852;28;20023;-81
2023/03/26 10:26:46;;;;;;;11.27;3.83;;;11.10;99.90;;;;;;4956103;28;20033;-81
2023/03/26 10:29:11;;;;;;;10.27;3.50;;;11.20;99.90;;;;;;4956345;28;20079;-81
2023/03/26 10:31:42;;;;;;;9.55;3.30;;;11.30;99.90;;;;;;4973681;28;20137;-81
2023/03/26 10:34:14;;;;;;;9.63;3.38;;;11.40;99.90;;;;;;4960865;28;20451;-80
2023/03/26 10:37:01;;;;;;;11.60;3.85;;;11.50;99.90;;;;;;4977697;28;20031;-81
2023/03/26 10:39:42;;;;;;;12.10;3.00;;;11.60;99.90;;;;;;4959744;28;20375;-79
2023/03/26 10:42:41;;;;;;;7.50;2.17;;;11.70;99.90;;;;;;4976902;28;20042;-80
2023/03/26 10:45:14;;;;;;;6.97;2.70;;;11.90;99.90;;;;;;4977450;28;20086;-80
2023/03/26 10:48:03;;;;;;;12.18;2.88;;;12.00;99.90;;;;;;4977813;28;20410;-80
2023/03/26 10:50:53;;;;;;;9.88;3.08;;;12.20;99.90;;;;;;4979602;28;20065;-80
2023/03/26 10:53:40;;;;;;;10.18;2.90;;;12.30;99.90;;;;;;4977189;28;20042;-80
2023/03/26 10:56:12;;;;;;;6.95;2.47;;;12.50;99.90;;;;;;4977860;28;20070;-80
2023/03/26 10:58:39;;;;;;;8.70;2.70;;;12.70;99.90;;;;;;4975941;28;20027;-80
2023/03/26 11:01:14;;;;;;;13.55;3.28;;;12.80;99.90;;;;;;4977303;28;20118;-80
2023/03/26 11:03:53;;;;;;;11.30;2.72;;;12.90;99.90;;;;;;4959822;28;20023;-80
2023/03/26 11:06:24;;;;;;;10.80;2.63;;;12.90;99.90;;;;;;4977072;28;20023;-80
2023/03/26 11:09:05;;;;;;;10.18;1.77;;;12.80;99.90;;;;;;4975301;28;20022;-79
2023/03/26 11:11:46;;;;;;;11.90;2.65;;;12.60;99.90;;;;;;4975308;28;20034;-80
2023/03/26 11:14:24;;;;;;;11.05;2.25;;;12.40;99.90;;;;;;4975339;28;20394;-81
2023/03/26 11:17:23;;;;;;;8.82;1.48;;;12.20;99.90;;;;;;4975401;28;20086;-80
2023/03/26 11:19:51;;;;;;;10.02;2.00;;;12.10;99.90;;;;;;4976268;28;20045;-81
2023/03/26 11:22:32;;;;;;;8.75;1.35;;;12.00;99.90;;;;;;4976651;28;20054;-81
2023/03/26 11:25:16;;;;;;;6.72;1.35;;;11.80;99.90;;;;;;4976549;28;20537;-81
2023/03/26 11:28:08;;;;;;;6.30;1.48;;;11.70;99.90;;;;;;4959018;28;20073;-81
2023/03/26 11:31:11;;;;;;;4.53;1.55;;;11.50;99.90;;;;;;4959215;28;20031;-81
2023/03/26 11:33:42;;;;;;;8.43;2.47;;;11.40;99.90;;;;;;4911166;28;20058;-81
2023/03/26 11:36:13;;;;;;;7.53;2.75;;;11.30;99.90;;;;;;4976249;28;20034;-82
2023/03/26 11:38:43;;;;;;;6.20;2.95;;;11.30;99.90;;;;;;4975001;28;20033;-81
2023/03/26 11:41:19;;;;;;;8.25;2.95;;;11.20;99.90;;;;;;4975890;28;20027;-81
2023/03/26 11:43:51;;;;;;;10.00;4.50;;;11.20;99.90;;;;;;4975919;28;20058;-81
2023/03/26 11:46:19;;;;;;;11.52;5.00;;;11.10;99.90;;;;;;4958389;28;20031;-81
2023/03/26 11:48:49;;;;;;;9.65;4.82;;;11.10;99.90;;;;;;4975057;28;20487;-81
2023/03/26 11:51:28;;;;;;;13.95;5.70;;;11.20;99.90;;;;;;4976126;28;20455;-81
2023/03/26 11:53:56;;;;;;;17.25;6.65;;;11.20;99.90;;;;;;4958473;28;20050;-82
2023/03/26 11:56:38;;;;;;;13.20;6.40;;;11.20;99.90;;;;;;4958527;28;20054;-81
2023/03/26 11:59:10;;;;;;;18.75;7.85;;;11.20;99.90;;;;;;4975725;28;20027;-81
2023/03/26 12:01:54;;;;;;;18.33;8.05;;;11.10;99.90;;;;;;4975608;28;20052;-81
2023/03/26 12:04:49;;;;;;;14.90;6.15;;;11.20;99.90;;;;;;4957889;28;20494;-81
2023/03/26 12:07:15;;;;;;;;;;;11.10;99.90;;;;;;4958888;28;20050;-81
2023/03/26 12:09:55;;;;;;;17.70;7.20;;;11.00;99.90;;;;;;4975797;28;20371;-81
2023/03/26 12:12:26;;;;;;;21.27;8.77;;;10.90;99.90;;;;;;4975159;28;20476;-81
2023/03/26 12:14:51;;;;;;;19.37;7.07;;;10.90;99.90;;;;;;4975559;28;20046;-81
2023/03/26 12:17:31;;;;;;;19.57;6.70;;;10.80;99.90;;;;;;4973813;28;20034;-81
2023/03/26 12:19:56;;;;;;;17.97;5.93;;;10.70;99.90;;;;;;4958109;28;20469;-81
2023/03/26 12:22:40;;;;;;;21.43;7.03;;;10.60;99.90;;;;;;4958602;28;20027;-81
2023/03/26 12:25:20;;;;;;;18.75;6.10;;;10.50;99.90;;;;;;4958249;28;20035;-80
2023/03/26 12:28:03;;;;;;;21.33;6.07;;;10.50;99.90;;;;;;4975380;28;20102;-80
2023/03/26 12:30:32;;;;;;;22.95;7.85;;;10.50;99.90;;;;;;4974835;28;20490;-81
2023/03/26 12:33:27;;;;;;;22.57;6.83;;;10.50;99.90;;;;;;4975039;28;20022;-81
2023/03/26 12:35:56;;;;;;;13.73;5.60;;;10.40;99.90;;;;;;4974067;28;20089;-81
2023/03/26 12:38:37;;;;;;;20.47;5.93;;;10.40;99.90;;;;;;4975320;28;20029;-80
2023/03/26 12:41:15;;;;;;;19.23;4.43;;;10.40;99.90;;;;;;4975515;28;20026;-81
2023/03/26 12:43:45;;;;;;;21.40;5.57;;;10.40;99.90;;;;;;4974994;28;20030;-81
2023/03/26 12:46:35;;;;;;;16.37;4.77;;;10.40;99.90;;;;;;4960285;28;20494;-80
2023/03/26 12:49:05;;;;;;;20.90;4.83;;;10.40;99.90;;;;;;4973290;28;20037;-81
2023/03/26 12:51:55;;;;;;;17.90;4.80;;;10.40;99.90;;;;;;4956751;28;20031;-80
2023/03/26 12:54:53;;;;;;;15.57;4.00;;;10.50;99.90;;;;;;4971088;28;20458;-80
2023/03/26 12:57:23;;;;;;;12.93;4.23;;;10.60;99.90;;;;;;4915453;28;20053;-80
2023/03/26 13:00:09;;;;;;;16.87;4.77;;;10.70;99.90;;;;;;4974824;28;20463;-80
2023/03/26 13:03:01;;;;;;;17.00;4.33;;;10.70;99.90;;;;;;4974618;28;20018;-81
2023/03/26 13:05:48;;;;;;;14.40;3.97;;;10.80;99.90;;;;;;4957336;28;20035;-80
2023/03/26 13:08:19;;;;;;;19.83;4.10;;;10.90;99.90;;;;;;4973712;28;20034;-80
2023/03/26 13:11:04;;;;;;;14.40;3.35;;;11.00;99.90;;;;;;4973093;28;20486;-79
2023/03/26 13:14:10;;;;;;;15.25;3.92;;;11.00;99.90;;;;;;4973159;28;20030;-80
2023/03/26 13:16:54;;;;;;;12.33;4.10;;;10.90;99.90;;;;;;4957342;28;20034;-79
2023/03/26 13:19:42;;;;;;;;;;;10.80;99.90;;;;;;4957610;28;20019;-80